U27181 / G-EZUW 7700 Squawk Report (14th of January, 2020)

Aircraft A320 Reg No. G-EZUW Age 7 years old
Model A320 Jet engines 2 First flight 05-04-12
Registered 13-04-12 Rollout 03-12 Delivered 13-04-12
Construction No. 5116 Line No. N/A Series 214
ADSHEX 406670 Airline name easyJet Owner N/A
Airfield based Luton~Beds~G First tracked 2017-07-13 08:45:00

Flight history for G-EZUW

Route Flight No Date Playback
Luton (LTN) - Keflavik International Airport (KEF) U22297 2020-02-17 16:04:00
Barajas (MAD) - Luton (LTN) U22202 2020-02-17 14:12:00
Luton (LTN) - Barajas (MAD) U22201 2020-02-17 11:29:00
Edinburgh (EDI) - Luton (LTN) U218 2020-02-16 23:54:00
Luton (LTN) - Edinburgh (EDI) U217 2020-02-16 22:57:00
Belfast International (BFS) - Luton (LTN) U2186 2020-02-16 20:16:00
Luton (LTN) - Belfast International (BFS) U2185 2020-02-16 17:49:00
Lisbon (LIS) - Luton (LTN) U22366 2020-02-16 16:39:00
Luton (LTN) - Lisbon (LIS) U22365 2020-02-16 13:20:00
Geneve Cointrin (GVA) - Luton (LTN) U22060 2020-02-15 23:43:00
Luton (LTN) - Geneve Cointrin (GVA) U22059 2020-02-15 15:58:00
Barajas (MAD) - Luton (LTN) U22202 2020-02-15 14:15:00
Luton (LTN) - Barajas (MAD) U22201 2020-02-15 10:03:00
Munich Airport (MUC) - Luton (LTN) U22082 2020-02-15 07:53:00
Luton (LTN) - Munich Airport (MUC) U22081 2020-02-14 18:41:00
EuroAirport Basel Mulhouse Freiburg (BSL) - Luton (LTN) U22198 2020-02-14 16:51:00
Luton (LTN) - EuroAirport Basel Mulhouse Freiburg (BSL) U22197 2020-02-14 14:04:00
Berlin Schonefeld (SXF) - Luton (LTN) U22142 2020-02-14 10:57:00
Luton (LTN) - Berlin Schonefeld (SXF) U22141 2020-02-14 08:25:00
Malaga (AGP) - Luton (LTN) U22406 2020-02-14 06:51:00
Time Lat Lon Altitude Heading Speed Vertical Rate
2020-01-14 22:28:08 GMT 53.335453 -2.857191 0 0
2020-01-14 22:27:54 GMT 53.335457 -2.857193 0 0
2020-01-14 22:27:33 GMT 53.335464 -2.857191 0 0
2020-01-14 22:27:13 GMT 53.335468 -2.857172 0 0
2020-01-14 22:27:03 GMT 53.335476 -2.857171 0 0
2020-01-14 22:26:54 GMT 53.335468 -2.857172 0 0
2020-01-14 22:26:42 GMT 53.335476 -2.857152 0 0
2020-01-14 22:26:32 GMT 53.335457 -2.857152 0 0
2020-01-14 22:26:22 GMT 53.335457 -2.857172 0 0
2020-01-14 22:26:02 GMT 53.335464 -2.857171 0 0
2020-01-14 22:25:52 GMT 53.335468 -2.857172 0 0
2020-01-14 22:25:32 GMT 53.335464 -2.857191 0 0
2020-01-14 22:25:11 GMT 53.335468 -2.857193 0 0
2020-01-14 22:24:57 GMT 53.335468 -2.857172 0 0
2020-01-14 22:24:47 GMT 53.335476 -2.857171 0 0
2020-01-14 22:24:27 GMT 53.335476 -2.857152 0 0
2020-01-14 22:24:17 GMT 53.335476 -2.857132 0 0
2020-01-14 22:24:07 GMT 53.335480 -2.857132 0 0
2020-01-14 22:23:51 GMT 53.335480 -2.857112 0 0
2020-01-14 22:23:40 GMT 53.335468 -2.857112 0 0
2020-01-14 22:23:29 GMT 53.335476 -2.857132 0 0
2020-01-14 22:23:14 GMT 53.335468 -2.857152 0 0
2020-01-14 22:23:09 GMT 53.335464 -2.857152 0 0
2020-01-14 22:22:59 GMT 53.335468 -2.857172 0 0
2020-01-14 22:22:49 GMT 53.335476 -2.857171 0 0
2020-01-14 22:22:39 GMT 53.335468 -2.857193 0 0
2020-01-14 22:22:15 GMT 53.335464 -2.857191 0 0
2020-01-14 22:22:04 GMT 53.335468 -2.857172 0 0
2020-01-14 22:21:54 GMT 53.335464 -2.857171 0 0
2020-01-14 22:21:44 GMT 53.335468 -2.857172 0 0
2020-01-14 22:21:23 GMT 53.335464 -2.857171 0 0
2020-01-14 22:21:03 GMT 53.335468 -2.857172 0 0
2020-01-14 22:20:54 GMT 53.335464 -2.857171 0 0
2020-01-14 22:20:29 GMT 53.335476 -2.857171 0 0
2020-01-14 22:20:14 GMT 53.335480 -2.857172 0 0
2020-01-14 22:20:04 GMT 53.335468 -2.857172 0 0
2020-01-14 22:19:49 GMT 53.335464 -2.857171 0 0
2020-01-14 22:19:44 GMT 53.335468 -2.857172 0 0
2020-01-14 22:19:33 GMT 53.335464 -2.857171 0 0
2020-01-14 22:19:23 GMT 53.335468 -2.857172 0 0
2020-01-14 22:19:13 GMT 53.335464 -2.857171 0 0
2020-01-14 22:18:58 GMT 53.335445 -2.857172 0 0
2020-01-14 22:18:53 GMT 53.335453 -2.857171 0 0
2020-01-14 22:18:44 GMT 53.335457 -2.857172 0 0
2020-01-14 22:18:35 GMT 53.335468 -2.857172 0 0
2020-01-14 22:18:09 GMT 53.335476 -2.857191 0 0
2020-01-14 22:18:04 GMT 53.335464 -2.857191 0 0
2020-01-14 22:17:49 GMT 53.335464 -2.857210 0 0
2020-01-14 22:17:34 GMT 53.335468 -2.857213 0 0
2020-01-14 22:17:18 GMT 53.335464 -2.857191 0 0
2020-01-14 22:16:48 GMT 53.335468 -2.857193 0 0
2020-01-14 22:16:39 GMT 53.335464 -2.857191 0 0
2020-01-14 22:16:29 GMT 53.335468 -2.857213 0 0
2020-01-14 22:16:19 GMT 53.335464 -2.857210 0 0
2020-01-14 22:15:24 GMT 53.335468 -2.857193 0 0
2020-01-14 22:15:20 GMT 53.335468 -2.857172 0 0
2020-01-14 22:15:09 GMT 53.335464 -2.857171 0 0
2020-01-14 22:14:59 GMT 53.335468 -2.857172 0 0
2020-01-14 22:14:38 GMT 53.335464 -2.857171 0 0
2020-01-14 22:14:29 GMT 53.335468 -2.857172 0 0
2020-01-14 22:14:18 GMT 53.335480 -2.857172 0 0
2020-01-14 22:14:08 GMT 53.335468 -2.857172 0 0
2020-01-14 22:13:38 GMT 53.335476 -2.857171 0 0
2020-01-14 22:13:29 GMT 53.335464 -2.857152 0 0
2020-01-14 22:13:18 GMT 53.335468 -2.857152 0 0
2020-01-14 22:12:58 GMT 53.335476 -2.857152 0 0
2020-01-14 22:12:38 GMT 53.335480 -2.857152 0 0
2020-01-14 22:12:17 GMT 53.335476 -2.857171 0 0
2020-01-14 22:11:43 GMT 53.335476 -2.857191 0 0
2020-01-14 22:11:32 GMT 53.335480 -2.857193 0 0
2020-01-14 22:11:02 GMT 53.335468 -2.857193 0 0
2020-01-14 22:10:53 GMT 53.335468 -2.857213 0 0
2020-01-14 22:10:42 GMT 53.335464 -2.857230 0 0
2020-01-14 22:10:08 GMT 53.335468 -2.857233 0 0
2020-01-14 22:10:02 GMT 53.335464 -2.857230 0 0
2020-01-14 22:09:52 GMT 53.335468 -2.857233 0 0
2020-01-14 22:09:32 GMT 53.335464 -2.857230 0 0
2020-01-14 22:09:23 GMT 53.335468 -2.857233 0 0
2020-01-14 22:09:07 GMT 53.335457 -2.857233 0 0
2020-01-14 22:09:02 GMT 53.335464 -2.857230 0 0
2020-01-14 22:08:52 GMT 53.335468 -2.857233 0 0
2020-01-14 22:08:22 GMT 53.335476 -2.857230 0 0
2020-01-14 22:08:07 GMT 53.335476 -2.857210 0 0
2020-01-14 22:07:57 GMT 53.335464 -2.857191 0 0
2020-01-14 22:07:47 GMT 53.335464 -2.857210 0 0
2020-01-14 22:07:27 GMT 53.335476 -2.857210 0 0
2020-01-14 22:07:18 GMT 53.335464 -2.857191 0 0
2020-01-14 22:06:57 GMT 53.335464 -2.857171 0 0
2020-01-14 22:06:47 GMT 53.335480 -2.857193 0 0
2020-01-14 22:06:38 GMT 53.335476 -2.857191 0 0
2020-01-14 22:06:27 GMT 53.335468 -2.857172 0 0
2020-01-14 22:06:17 GMT 53.335476 -2.857171 0 0
2020-01-14 22:05:58 GMT 53.335468 -2.857172 0 0
2020-01-14 22:05:49 GMT 53.335442 -2.857132 0 0
2020-01-14 22:05:38 GMT 53.335423 -2.857132 0 0
2020-01-14 22:05:26 GMT 53.335464 -2.857191 0 0
2020-01-14 22:04:52 GMT 53.335468 -2.857193 0 0
2020-01-14 22:04:46 GMT 53.335464 -2.857210 0 0
2020-01-14 22:04:36 GMT 53.335476 -2.857210 0 0
2020-01-14 22:04:26 GMT 53.335468 -2.857213 0 0
2020-01-14 22:04:16 GMT 53.335476 -2.857230 0 0
2020-01-14 22:03:56 GMT 53.335468 -2.857233 0 0
2020-01-14 22:03:15 GMT 53.335476 -2.857210 0 0
2020-01-14 22:03:11 GMT 53.335464 -2.857210 0 0
2020-01-14 22:03:00 GMT 53.335476 -2.857230 0 0
2020-01-14 22:02:51 GMT 53.335468 -2.857233 0 0
2020-01-14 22:02:22 GMT 53.335457 -2.857213 0 0
2020-01-14 22:02:11 GMT 53.335464 -2.857191 0 0
2020-01-14 22:01:51 GMT 53.335453 -2.857171 0 0
2020-01-14 22:01:31 GMT 53.335453 -2.857191 0 0
2020-01-14 22:01:12 GMT 53.335445 -2.857193 0 0
2020-01-14 22:01:03 GMT 53.335487 -2.857250 0 0
2020-01-14 22:00:53 GMT 53.335476 -2.857230 0 0
2020-01-14 22:00:34 GMT 53.335442 -2.857191 0 0
2020-01-14 22:00:23 GMT 53.335453 -2.857191 0 0
2020-01-14 22:00:08 GMT 53.335457 -2.857152 0 0
2020-01-14 21:59:48 GMT 53.335468 -2.857172 0 0
2020-01-14 21:59:39 GMT 53.335464 -2.857171 0 0
2020-01-14 21:59:28 GMT 53.335457 -2.857172 0 0
2020-01-14 21:59:18 GMT 53.335464 -2.857171 0 0
2020-01-14 21:59:08 GMT 53.335476 -2.857171 0 0
2020-01-14 21:58:44 GMT 53.335468 -2.857172 0 0
2020-01-14 21:58:38 GMT 53.335464 -2.857191 0 0
2020-01-14 21:58:23 GMT 53.335468 -2.857193 0 0
2020-01-14 21:57:53 GMT 53.335464 -2.857191 0 0
2020-01-14 21:57:33 GMT 53.335468 -2.857193 0 0
2020-01-14 21:57:13 GMT 53.335468 -2.857213 0 0
2020-01-14 21:57:03 GMT 53.335468 -2.857193 0 0
2020-01-14 21:56:48 GMT 53.335464 -2.857171 0 0
2020-01-14 21:56:44 GMT 53.335457 -2.857172 0 0
2020-01-14 21:56:23 GMT 53.335453 -2.857171 0 0
2020-01-14 21:56:13 GMT 53.335453 -2.857191 0 0
2020-01-14 21:55:33 GMT 53.335457 -2.857193 0 0
2020-01-14 21:55:23 GMT 53.335457 -2.857172 0 0
2020-01-14 21:55:08 GMT 53.335468 -2.857172 0 0
2020-01-14 21:54:33 GMT 53.335464 -2.857171 0 0
2020-01-14 21:54:13 GMT 53.335468 -2.857172 0 0
2020-01-14 21:54:02 GMT 53.335464 -2.857171 0 0
2020-01-14 21:53:48 GMT 53.335468 -2.857172 0 0
2020-01-14 21:53:33 GMT 53.335464 -2.857171 0 0
2020-01-14 21:53:23 GMT 53.335468 -2.857172 0 0
2020-01-14 21:53:09 GMT 53.335464 -2.857171 0 0
2020-01-14 21:52:54 GMT 53.335464 -2.857191 0 0
2020-01-14 21:52:48 GMT 53.335476 -2.857191 0 0
2020-01-14 21:52:39 GMT 53.335464 -2.857171 0 0
2020-01-14 21:52:18 GMT 53.335464 -2.857152 0 0
2020-01-14 21:52:09 GMT 53.335457 -2.857152 0 0
2020-01-14 21:51:58 GMT 53.335487 -2.857171 0 0
2020-01-14 21:51:48 GMT 53.335491 -2.857172 0 0
2020-01-14 21:51:39 GMT 53.335487 -2.857171 0 0
2020-01-14 21:51:29 GMT 53.335491 -2.857172 0 0
2020-01-14 21:51:20 GMT 53.335499 -2.857171 0 0
2020-01-14 21:51:09 GMT 53.335499 -2.857191 0 0

Making use of Plane Finder data

You are free to use the raw flight data, aircraft information and images provided in this report for your own purposes provided the data is correctly attributed to Plane Finder. We ask that you please credit Plane Finder and link to planefinder.net in close proximity to the content.

Optionally one of the following logos (no smaller then 150x24px) can be used and must link to planefinder.net

Embedding the Plane Finder map

You are welcome to embed the Plane Finder playback map on your website to offer visitors a more interactive experience. We suggest using the following HTML code:

<iframe src="//planefinder.net/data/report/U27181-G-EZUW-7700-squawk-2020-01-14/map" width="800" height="600" seamless="seamless"></iframe>

Where our data comes from

Plane Finder has a global network of data feeds and antenna radars that receive data broadcast directly from aircraft. The primary technologies used are ADS-B and MLAT. We also show feeds from the FAA and a FLARM glider feed.

Click here to find out more about the Plane Finder network.

How we collect our data